Elissa — WDD9058 — position and weather

sailwx.info

Track history (hours):
 
Tides and Currents Weather Stations Pressure Air Temp Water Temp Dewpoint Dewpoint Depression Visibility Wind Speed Wind Dir Waves Ship Positions

Elissa

Owner: Ingram Barge Company, Nashville, TN. More information available from US FCC via Universal Licensing System and Coast Guard Vessel Documentation Center.

Last reported at 2016-Aug-07 00:17 UTC. Time now 2016-Aug-28 08:37 UTC.
Position N 29°33' W 090°24'.
Warning: this ship's position is 21 days out of date.

Length 26 m; draft 3.6 m.

Type: Towing. MMSI: 367306290.

Date/timePositionNaut miles runAvg speedWind from/ knotsBaromVisibWave heightAir tempDewpointWater temp
2016-Aug-07 00:17N 29°33' W 090°24'4 4.6
2016-Aug-06 23:30N 29°33' W 090°28'4 4.6
2016-Aug-06 22:33N 29°34' W 090°33'4 4.1
2016-Aug-06 21:33N 29°35' W 090°38'4 4.4
2016-Aug-06 20:33N 29°37' W 090°42'3 3.2
2016-Aug-06 19:33N 29°34' W 090°44'3 3.1
2016-Aug-06 18:33N 29°32' W 090°47'3 3.0
2016-Aug-06 17:34N 29°32' W 090°50'5 5.1
2016-Aug-06 16:33N 29°34' W 090°56'44 3.3
2016-Aug-06 03:11N 29°46' W 091°44'3 4.0
2016-Aug-06 02:32N 29°46' W 091°47'4 3.7
2016-Aug-06 01:20N 29°50' W 091°50'4 4.4
2016-Aug-06 00:28N 29°51' W 091°54'5 2.1
2016-Aug-05 22:21N 29°49' W 091°49'51 3.7
2016-Aug-05 08:33N 29°33' W 090°54'5 4.8
2016-Aug-05 07:33N 29°32' W 090°49'4 3.8
2016-Aug-05 06:33N 29°34' W 090°45'4 2.1
2016-Aug-05 04:33N 29°37' W 090°41'0 0.0
2016-Aug-05 03:33N 29°37' W 090°41'4 3.6
2016-Aug-05 02:33N 29°35' W 090°38'5 5.2
2016-Aug-05 01:33N 29°34' W 090°32'6 5.8
2016-Aug-05 00:33N 29°33' W 090°25'19 4.7
2016-Aug-04 20:32N 29°45' W 090°08'3 3.5
2016-Aug-04 19:33N 29°46' W 090°04'4 3.7
2016-Aug-04 18:33N 29°50' W 090°03'0 0.0
2016-Aug-04 17:33N 29°50' W 090°03'0 0.0
2016-Aug-04 16:34N 29°50' W 090°03'0 0.0
2016-Aug-04 15:33N 29°50' W 090°03'0 0.1
2016-Aug-04 14:34N 29°50' W 090°03'4 3.8
2016-Aug-04 13:33N 29°53' W 090°00'0 0.3
2016-Aug-04 12:33N 29°53' W 090°00'2 2.4
2016-Aug-04 11:32N 29°55' W 089°58'0 0.2
2016-Aug-04 10:33N 29°55' W 089°58'0 0.0
2016-Aug-04 09:34N 29°55' W 089°58'0 0.0
2016-Aug-04 08:33N 29°55' W 089°58'0 0.0
2016-Aug-04 07:33N 29°55' W 089°58'0 0.0
2016-Aug-04 06:33N 29°55' W 089°58'0 0.0
2016-Aug-04 04:34N 29°55' W 089°58'0 0.5
2016-Aug-04 03:33N 29°55' W 089°59'4 4.3
2016-Aug-04 02:34N 29°56' W 090°03'5 5.1
2016-Aug-04 01:34N 29°57' W 090°09'0 0.2
2016-Aug-04 00:33N 29°57' W 090°09'2 1.6
2016-Aug-03 23:33N 29°56' W 090°08'3 3.3
2016-Aug-03 22:34N 29°55' W 090°05'2 2.1
2016-Aug-03 21:34N 29°57' W 090°03'0 0.4
2016-Aug-03 20:34N 29°57' W 090°03'0 0.0
2016-Aug-03 19:34N 29°57' W 090°03'0 0.0
2016-Aug-03 18:34N 29°57' W 090°03'0 0.0
2016-Aug-03 17:33N 29°57' W 090°03'0 0.0
2016-Aug-03 16:34N 29°57' W 090°03'0 0.3
2016-Aug-03 15:33N 29°57' W 090°03'5 5.4
2016-Aug-03 14:34N 29°55' W 089°57'2 2.3
2016-Aug-03 13:34N 29°55' W 089°55'5 4.5
2016-Aug-03 12:34N 29°51' W 089°59'  
2016-Jul-31 18:33N 30°00' W 089°57'5 4.5
2016-Jul-31 17:33N 29°58' W 090°02'1 0.8
2016-Jul-31 16:33N 29°57' W 090°02'0 0.0
2016-Jul-31 15:33N 29°57' W 090°02'0 0.0
2016-Jul-31 14:33N 29°57' W 090°02'0 0.0
2016-Jul-31 13:33N 29°57' W 090°02'0 0.0
2016-Jul-31 12:33N 29°57' W 090°02'0 0.0
2016-Jul-31 11:33N 29°57' W 090°02'0 0.0
2016-Jul-31 10:33N 29°57' W 090°02'0 0.0
2016-Jul-31 09:33N 29°57' W 090°02'0 0.0
2016-Jul-31 08:33N 29°57' W 090°02'0 0.0
2016-Jul-31 07:33N 29°57' W 090°02'0 0.0
2016-Jul-31 06:33N 29°57' W 090°02'0 0.0
2016-Jul-31 05:33N 29°57' W 090°02'0 0.0
2016-Jul-31 04:33N 29°57' W 090°02'0 0.0
2016-Jul-31 03:33N 29°57' W 090°02'0 0.0
2016-Jul-31 02:33N 29°57' W 090°02'0 0.0
2016-Jul-31 01:33N 29°57' W 090°02'0 0.0
2016-Jul-31 00:33N 29°57' W 090°02'0 0.0
2016-Jul-30 22:33N 29°57' W 090°02'0 0.0
2016-Jul-30 21:33N 29°57' W 090°02'0 0.0
2016-Jul-30 20:33N 29°57' W 090°02'0 0.0
2016-Jul-30 19:33N 29°57' W 090°02'0 0.0
2016-Jul-30 18:33N 29°57' W 090°02'0 0.0
2016-Jul-30 17:33N 29°57' W 090°02'0 0.0
2016-Jul-30 16:33N 29°57' W 090°02'6 5.7
2016-Jul-30 15:33N 29°55' W 090°08'2 2.3
2016-Jul-30 14:33N 29°57' W 090°10'3 0.3
2016-Jul-30 04:29N 29°56' W 090°13'3 3.3
2016-Jul-30 03:33N 29°57' W 090°10'3 3.1
2016-Jul-30 02:33N 29°55' W 090°08'3 3.5
2016-Jul-30 01:33N 29°55' W 090°04'0 0.0
2016-Jul-30 00:33N 29°55' W 090°04'2 1.5
2016-Jul-29 23:33N 29°55' W 090°05'0 0.4
2016-Jul-29 22:33N 29°54' W 090°05'4 4.2
2016-Jul-29 21:33N 29°50' W 090°04'0 0.0
2016-Jul-29 20:33N 29°50' W 090°04'0 0.0
2016-Jul-29 19:33N 29°50' W 090°04'0 0.0
2016-Jul-29 18:33N 29°50' W 090°04'0 0.0
2016-Jul-29 17:33N 29°50' W 090°04'0 0.0
2016-Jul-29 16:33N 29°50' W 090°04'0 0.0
2016-Jul-29 15:33N 29°50' W 090°04'  
Track history (hours):
 
Tides and Currents Weather Stations Pressure Air Temp Water Temp Dewpoint Dewpoint Depression Visibility Wind Speed Wind Dir Waves Ship Positions

Elissa

Owner: Ingram Barge Company, Nashville, TN. More information available from US FCC via Universal Licensing System and Coast Guard Vessel Documentation Center.

Last reported at 2016-Aug-07 00:17 UTC. Time now 2016-Aug-28 08:37 UTC.
Position N 29°33' W 090°24'.
Warning: this ship's position is 21 days out of date.

Length 26 m; draft 3.6 m.

Type: Towing. MMSI: 367306290.

Date/timePositionNaut miles runAvg speedWind from/ knotsBaromVisibWave heightAir tempDewpointWater temp
2016-Aug-07 00:17N 29°33' W 090°24'4 4.6
2016-Aug-06 23:30N 29°33' W 090°28'4 4.6
2016-Aug-06 22:33N 29°34' W 090°33'4 4.1
2016-Aug-06 21:33N 29°35' W 090°38'4 4.4
2016-Aug-06 20:33N 29°37' W 090°42'3 3.2
2016-Aug-06 19:33N 29°34' W 090°44'3 3.1
2016-Aug-06 18:33N 29°32' W 090°47'3 3.0
2016-Aug-06 17:34N 29°32' W 090°50'5 5.1
2016-Aug-06 16:33N 29°34' W 090°56'44 3.3
2016-Aug-06 03:11N 29°46' W 091°44'3 4.0
2016-Aug-06 02:32N 29°46' W 091°47'4 3.7
2016-Aug-06 01:20N 29°50' W 091°50'4 4.4
2016-Aug-06 00:28N 29°51' W 091°54'5 2.1
2016-Aug-05 22:21N 29°49' W 091°49'51 3.7
2016-Aug-05 08:33N 29°33' W 090°54'5 4.8
2016-Aug-05 07:33N 29°32' W 090°49'4 3.8
2016-Aug-05 06:33N 29°34' W 090°45'4 2.1
2016-Aug-05 04:33N 29°37' W 090°41'0 0.0
2016-Aug-05 03:33N 29°37' W 090°41'4 3.6
2016-Aug-05 02:33N 29°35' W 090°38'5 5.2
2016-Aug-05 01:33N 29°34' W 090°32'6 5.8
2016-Aug-05 00:33N 29°33' W 090°25'19 4.7
2016-Aug-04 20:32N 29°45' W 090°08'3 3.5
2016-Aug-04 19:33N 29°46' W 090°04'4 3.7
2016-Aug-04 18:33N 29°50' W 090°03'0 0.0
2016-Aug-04 17:33N 29°50' W 090°03'0 0.0
2016-Aug-04 16:34N 29°50' W 090°03'0 0.0
2016-Aug-04 15:33N 29°50' W 090°03'0 0.1
2016-Aug-04 14:34N 29°50' W 090°03'4 3.8
2016-Aug-04 13:33N 29°53' W 090°00'0 0.3
2016-Aug-04 12:33N 29°53' W 090°00'2 2.4
2016-Aug-04 11:32N 29°55' W 089°58'0 0.2
2016-Aug-04 10:33N 29°55' W 089°58'0 0.0
2016-Aug-04 09:34N 29°55' W 089°58'0 0.0
2016-Aug-04 08:33N 29°55' W 089°58'0 0.0
2016-Aug-04 07:33N 29°55' W 089°58'0 0.0
2016-Aug-04 06:33N 29°55' W 089°58'0 0.0
2016-Aug-04 04:34N 29°55' W 089°58'0 0.5
2016-Aug-04 03:33N 29°55' W 089°59'4 4.3
2016-Aug-04 02:34N 29°56' W 090°03'5 5.1
2016-Aug-04 01:34N 29°57' W 090°09'0 0.2
2016-Aug-04 00:33N 29°57' W 090°09'2 1.6
2016-Aug-03 23:33N 29°56' W 090°08'3 3.3
2016-Aug-03 22:34N 29°55' W 090°05'2 2.1
2016-Aug-03 21:34N 29°57' W 090°03'0 0.4
2016-Aug-03 20:34N 29°57' W 090°03'0 0.0
2016-Aug-03 19:34N 29°57' W 090°03'0 0.0
2016-Aug-03 18:34N 29°57' W 090°03'0 0.0
2016-Aug-03 17:33N 29°57' W 090°03'0 0.0
2016-Aug-03 16:34N 29°57' W 090°03'0 0.3
2016-Aug-03 15:33N 29°57' W 090°03'5 5.4
2016-Aug-03 14:34N 29°55' W 089°57'2 2.3
2016-Aug-03 13:34N 29°55' W 089°55'5 4.5
2016-Aug-03 12:34N 29°51' W 089°59'  
2016-Jul-31 18:33N 30°00' W 089°57'5 4.5
2016-Jul-31 17:33N 29°58' W 090°02'1 0.8
2016-Jul-31 16:33N 29°57' W 090°02'0 0.0
2016-Jul-31 15:33N 29°57' W 090°02'0 0.0
2016-Jul-31 14:33N 29°57' W 090°02'0 0.0
2016-Jul-31 13:33N 29°57' W 090°02'0 0.0
2016-Jul-31 12:33N 29°57' W 090°02'0 0.0
2016-Jul-31 11:33N 29°57' W 090°02'0 0.0
2016-Jul-31 10:33N 29°57' W 090°02'0 0.0
2016-Jul-31 09:33N 29°57' W 090°02'0 0.0
2016-Jul-31 08:33N 29°57' W 090°02'0 0.0
2016-Jul-31 07:33N 29°57' W 090°02'0 0.0
2016-Jul-31 06:33N 29°57' W 090°02'0 0.0
2016-Jul-31 05:33N 29°57' W 090°02'0 0.0
2016-Jul-31 04:33N 29°57' W 090°02'0 0.0
2016-Jul-31 03:33N 29°57' W 090°02'0 0.0
2016-Jul-31 02:33N 29°57' W 090°02'0 0.0
2016-Jul-31 01:33N 29°57' W 090°02'0 0.0
2016-Jul-31 00:33N 29°57' W 090°02'0 0.0
2016-Jul-30 22:33N 29°57' W 090°02'0 0.0
2016-Jul-30 21:33N 29°57' W 090°02'0 0.0
2016-Jul-30 20:33N 29°57' W 090°02'0 0.0
2016-Jul-30 19:33N 29°57' W 090°02'0 0.0
2016-Jul-30 18:33N 29°57' W 090°02'0 0.0
2016-Jul-30 17:33N 29°57' W 090°02'0 0.0
2016-Jul-30 16:33N 29°57' W 090°02'6 5.7
2016-Jul-30 15:33N 29°55' W 090°08'2 2.3
2016-Jul-30 14:33N 29°57' W 090°10'3 0.3
2016-Jul-30 04:29N 29°56' W 090°13'3 3.3
2016-Jul-30 03:33N 29°57' W 090°10'3 3.1
2016-Jul-30 02:33N 29°55' W 090°08'3 3.5
2016-Jul-30 01:33N 29°55' W 090°04'0 0.0
2016-Jul-30 00:33N 29°55' W 090°04'2 1.5
2016-Jul-29 23:33N 29°55' W 090°05'0 0.4
2016-Jul-29 22:33N 29°54' W 090°05'4 4.2
2016-Jul-29 21:33N 29°50' W 090°04'0 0.0
2016-Jul-29 20:33N 29°50' W 090°04'0 0.0
2016-Jul-29 19:33N 29°50' W 090°04'0 0.0
2016-Jul-29 18:33N 29°50' W 090°04'0 0.0
2016-Jul-29 17:33N 29°50' W 090°04'0 0.0
2016-Jul-29 16:33N 29°50' W 090°04'0 0.0
2016-Jul-29 15:33N 29°50' W 090°04'  

Dump ship's entire track history